SRH weather

Sarh Airport
Sarh, Moyen-Chari, Chad

Public forecast

Using degrees Celsius for public forecast. Weather courtesy of forecast.io.

Current aviation weather report (METAR) for Sarh Airport

Retrieved 2019/10/15 00:00 UTC (29 minutes ago):

FTTA 150000Z 00000KT 9999 FEW050CB 25/24 Q1011

Closest aviation forecast (TAF) to Sarh Airport

Forecast is more than 12 hours old.

Closest forecast is Salak Airport, 255.9 nm (473.9 km) WNW. Retrieved 2019/10/14 12:15 UTC (12 hours ago):

TAF COR TAF FKKL 141400Z 1412/1424 23006KT 9999 TS SCT045 FEW047CB TEMPO 1415/1421 4000 TSRA